« Back
NWS Peachtree City, Ga » Text Product » CSG Terminal Aerodrome Forecast


Printer-friendly Version
Current Version              Previous Versions:   1  2  3  4  5  6  7  8  9  

Terminal Aerodrome Forecast

409
FTUS42 KFFC 221100
TAFCSG
TAF
KCSG 221131Z 2212/2312 35004KT P6SM SKC
     FM221500 01007KT P6SM SKC
     FM230000 00000KT P6SM SKC=

USA.gov is the U.S. government's official web portal to all federal, state and local government web resources and services.